sensor_id;sensor_type;location;lat;lon;timestamp;pressure;altitude;pressure_sealevel;temperature;humidity
52653;BME280;39353;42.864;12.014;2023-04-01T00:00:20;96629.55;;;22.82;49.77
52653;BME280;39353;42.864;12.014;2023-04-01T00:03:08;96625.55;;;22.81;49.81
52653;BME280;39353;42.864;12.014;2023-04-01T00:05:49;96620.02;;;22.79;49.68
52653;BME280;39353;42.864;12.014;2023-04-01T00:08:30;96610.27;;;22.78;49.78
52653;BME280;39353;42.864;12.014;2023-04-01T00:10:57;96604.73;;;22.77;49.82
52653;BME280;39353;42.864;12.014;2023-04-01T00:13:26;96603.75;;;22.76;49.77
52653;BME280;39353;42.864;12.014;2023-04-01T00:16:09;96598.77;;;22.75;49.92
52653;BME280;39353;42.864;12.014;2023-04-01T00:18:50;96588.52;;;22.73;49.84
52653;BME280;39353;42.864;12.014;2023-04-01T00:21:34;96590.21;;;22.73;49.83
52653;BME280;39353;42.864;12.014;2023-04-01T00:24:17;96600.44;;;22.72;49.83
52653;BME280;39353;42.864;12.014;2023-04-01T00:26:44;96601.45;;;22.71;49.84
52653;BME280;39353;42.864;12.014;2023-04-01T00:29:13;96597.84;;;22.70;49.93
52653;BME280;39353;42.864;12.014;2023-04-01T00:31:56;96595.48;;;22.69;49.82
52653;BME280;39353;42.864;12.014;2023-04-01T00:34:39;96601.98;;;22.68;49.90
52653;BME280;39353;42.864;12.014;2023-04-01T00:37:08;96605.52;;;22.67;49.97
52653;BME280;39353;42.864;12.014;2023-04-01T00:39:52;96599.50;;;22.66;50.01
52653;BME280;39353;42.864;12.014;2023-04-01T00:42:33;96602.34;;;22.65;49.97
52653;BME280;39353;42.864;12.014;2023-04-01T00:48:14;96621.63;;;22.62;50.08
52653;BME280;39353;42.864;12.014;2023-04-01T00:50:52;96622.54;;;22.60;50.00
52653;BME280;39353;42.864;12.014;2023-04-01T00:53:40;96619.03;;;22.60;50.06
52653;BME280;39353;42.864;12.014;2023-04-01T00:56:34;96621.27;;;22.58;50.10
52653;BME280;39353;42.864;12.014;2023-04-01T00:59:10;96622.83;;;22.57;50.07
52653;BME280;39353;42.864;12.014;2023-04-01T01:01:38;96623.75;;;22.56;50.05
52653;BME280;39353;42.864;12.014;2023-04-01T01:04:25;96611.92;;;22.55;50.06
52653;BME280;39353;42.864;12.014;2023-04-01T01:06:59;96601.27;;;22.55;50.01
52653;BME280;39353;42.864;12.014;2023-04-01T01:15:46;96591.93;;;22.51;50.17
52653;BME280;39353;42.864;12.014;2023-04-01T01:21:29;96593.17;;;22.49;50.03
52653;BME280;39353;42.864;12.014;2023-04-01T01:24:41;96596.16;;;22.47;50.11
52653;BME280;39353;42.864;12.014;2023-04-01T01:27:11;96599.17;;;22.46;50.16
52653;BME280;39353;42.864;12.014;2023-04-01T01:35:52;96611.48;;;22.43;50.20
52653;BME280;39353;42.864;12.014;2023-04-01T01:38:26;96602.55;;;22.42;50.11
52653;BME280;39353;42.864;12.014;2023-04-01T01:41:14;96595.80;;;22.41;50.29
52653;BME280;39353;42.864;12.014;2023-04-01T01:43:48;96596.17;;;22.40;50.11
52653;BME280;39353;42.864;12.014;2023-04-01T01:46:31;96589.38;;;22.39;50.24
52653;BME280;39353;42.864;12.014;2023-04-01T01:49:00;96591.07;;;22.38;50.28
52653;BME280;39353;42.864;12.014;2023-04-01T01:51:42;96586.59;;;22.38;50.33
52653;BME280;39353;42.864;12.014;2023-04-01T01:54:13;96589.42;;;22.37;50.17
52653;BME280;39353;42.864;12.014;2023-04-01T01:57:07;96590.39;;;22.35;50.14
52653;BME280;39353;42.864;12.014;2023-04-01T01:59:40;96591.14;;;22.33;50.31
52653;BME280;39353;42.864;12.014;2023-04-01T02:02:14;96586.20;;;22.32;50.23
52653;BME280;39353;42.864;12.014;2023-04-01T02:04:44;96584.90;;;22.32;50.46
52653;BME280;39353;42.864;12.014;2023-04-01T02:07:32;96584.82;;;22.30;50.46
52653;BME280;39353;42.864;12.014;2023-04-01T02:10:03;96587.42;;;22.29;50.41
52653;BME280;39353;42.864;12.014;2023-04-01T02:12:34;96582.92;;;22.28;50.44
52653;BME280;39353;42.864;12.014;2023-04-01T02:15:07;96584.20;;;22.29;50.38
52653;BME280;39353;42.864;12.014;2023-04-01T02:17:52;96583.83;;;22.29;50.47
52653;BME280;39353;42.864;12.014;2023-04-01T02:20:23;96587.70;;;22.30;50.36
52653;BME280;39353;42.864;12.014;2023-04-01T02:22:54;96587.56;;;22.31;50.29
52653;BME280;39353;42.864;12.014;2023-04-01T02:25:39;96593.49;;;22.30;50.42
52653;BME280;39353;42.864;12.014;2023-04-01T02:28:25;96605.64;;;22.30;50.37
52653;BME280;39353;42.864;12.014;2023-04-01T02:31:10;96605.75;;;22.30;50.39
52653;BME280;39353;42.864;12.014;2023-04-01T02:33:53;96602.30;;;22.30;50.24
52653;BME280;39353;42.864;12.014;2023-04-01T02:36:38;96600.45;;;22.30;50.33
52653;BME280;39353;42.864;12.014;2023-04-01T02:39:08;96601.81;;;22.29;50.39
52653;BME280;39353;42.864;12.014;2023-04-01T02:41:44;96603.28;;;22.29;50.29
52653;BME280;39353;42.864;12.014;2023-04-01T02:44:14;96599.33;;;22.27;50.33
52653;BME280;39353;42.864;12.014;2023-04-01T02:46:56;96585.75;;;22.25;50.23
52653;BME280;39353;42.864;12.014;2023-04-01T02:49:23;96573.38;;;22.23;50.35
52653;BME280;39353;42.864;12.014;2023-04-01T02:51:50;96562.98;;;22.22;50.28
52653;BME280;39353;42.864;12.014;2023-04-01T02:54:32;96553.63;;;22.21;50.43
52653;BME280;39353;42.864;12.014;2023-04-01T02:56:59;96551.27;;;22.20;50.45
52653;BME280;39353;42.864;12.014;2023-04-01T02:59:41;96548.25;;;22.18;50.54
52653;BME280;39353;42.864;12.014;2023-04-01T03:02:08;96560.52;;;22.17;50.49
52653;BME280;39353;42.864;12.014;2023-04-01T03:04:50;96568.49;;;22.17;50.56
52653;BME280;39353;42.864;12.014;2023-04-01T03:07:32;96576.62;;;22.15;50.45
52653;BME280;39353;42.864;12.014;2023-04-01T03:10:14;96575.35;;;22.14;50.55
52653;BME280;39353;42.864;12.014;2023-04-01T03:12:55;96580.36;;;22.11;50.59
52653;BME280;39353;42.864;12.014;2023-04-01T03:15:39;96584.29;;;22.10;50.54
52653;BME280;39353;42.864;12.014;2023-04-01T03:18:21;96587.83;;;22.08;50.71
52653;BME280;39353;42.864;12.014;2023-04-01T03:20:49;96596.00;;;22.07;50.67
52653;BME280;39353;42.864;12.014;2023-04-01T03:23:18;96603.86;;;22.07;50.62
52653;BME280;39353;42.864;12.014;2023-04-01T03:26:03;96600.08;;;22.06;50.63
52653;BME280;39353;42.864;12.014;2023-04-01T03:28:45;96595.58;;;22.04;50.63
52653;BME280;39353;42.864;12.014;2023-04-01T03:31:26;96591.27;;;22.04;50.61
52653;BME280;39353;42.864;12.014;2023-04-01T03:34:09;96587.64;;;22.03;50.71
52653;BME280;39353;42.864;12.014;2023-04-01T03:36:37;96583.32;;;22.02;50.78
52653;BME280;39353;42.864;12.014;2023-04-01T03:39:05;96579.17;;;22.02;50.76
52653;BME280;39353;42.864;12.014;2023-04-01T03:41:50;96572.92;;;22.00;50.78
52653;BME280;39353;42.864;12.014;2023-04-01T03:44:35;96564.82;;;22.00;50.84
52653;BME280;39353;42.864;12.014;2023-04-01T03:47:16;96557.40;;;22.00;50.79
52653;BME280;39353;42.864;12.014;2023-04-01T03:49:44;96559.47;;;21.99;50.76
52653;BME280;39353;42.864;12.014;2023-04-01T03:52:25;96557.54;;;21.98;50.84
52653;BME280;39353;42.864;12.014;2023-04-01T03:54:53;96554.92;;;21.97;50.82
52653;BME280;39353;42.864;12.014;2023-04-01T03:57:35;96554.30;;;21.95;50.82
52653;BME280;39353;42.864;12.014;2023-04-01T04:00:05;96560.89;;;21.95;50.73
52653;BME280;39353;42.864;12.014;2023-04-01T04:02:54;96570.73;;;21.95;50.64
52653;BME280;39353;42.864;12.014;2023-04-01T04:05:50;96575.85;;;21.94;50.81
52653;BME280;39353;42.864;12.014;2023-04-01T04:08:19;96578.73;;;21.93;50.90
52653;BME280;39353;42.864;12.014;2023-04-01T04:11:02;96580.86;;;21.93;50.86
52653;BME280;39353;42.864;12.014;2023-04-01T04:13:30;96583.54;;;21.92;50.77
52653;BME280;39353;42.864;12.014;2023-04-01T04:16:02;96579.48;;;21.92;50.84
52653;BME280;39353;42.864;12.014;2023-04-01T04:18:43;96573.18;;;21.89;50.99
52653;BME280;39353;42.864;12.014;2023-04-01T04:21:13;96572.73;;;21.88;50.89
52653;BME280;39353;42.864;12.014;2023-04-01T04:23:55;96570.64;;;21.87;50.84
52653;BME280;39353;42.864;12.014;2023-04-01T04:26:22;96567.53;;;21.87;50.88
52653;BME280;39353;42.864;12.014;2023-04-01T04:28:55;96561.52;;;21.87;50.83
52653;BME280;39353;42.864;12.014;2023-04-01T04:31:24;96556.36;;;21.86;50.71
52653;BME280;39353;42.864;12.014;2023-04-01T04:34:05;96559.48;;;21.84;50.77
52653;BME280;39353;42.864;12.014;2023-04-01T04:36:35;96558.05;;;21.84;50.90
52653;BME280;39353;42.864;12.014;2023-04-01T04:39:03;96558.97;;;21.83;50.87
52653;BME280;39353;42.864;12.014;2023-04-01T04:41:45;96564.11;;;21.83;50.93
52653;BME280;39353;42.864;12.014;2023-04-01T04:44:27;96556.95;;;21.82;50.92
52653;BME280;39353;42.864;12.014;2023-04-01T04:47:08;96556.39;;;21.82;50.79
52653;BME280;39353;42.864;12.014;2023-04-01T04:49:36;96554.97;;;21.82;50.95
52653;BME280;39353;42.864;12.014;2023-04-01T04:52:20;96569.38;;;21.82;51.01
52653;BME280;39353;42.864;12.014;2023-04-01T04:55:04;96577.16;;;21.82;50.90
52653;BME280;39353;42.864;12.014;2023-04-01T04:57:45;96577.35;;;21.81;50.83
52653;BME280;39353;42.864;12.014;2023-04-01T05:00:18;96581.71;;;21.80;50.94
52653;BME280;39353;42.864;12.014;2023-04-01T05:03:15;96588.67;;;21.79;50.87
52653;BME280;39353;42.864;12.014;2023-04-01T05:05:52;96589.60;;;21.79;51.05
52653;BME280;39353;42.864;12.014;2023-04-01T05:08:20;96595.92;;;21.78;50.86
52653;BME280;39353;42.864;12.014;2023-04-01T05:10:48;96596.13;;;21.77;50.77
52653;BME280;39353;42.864;12.014;2023-04-01T05:13:29;96599.08;;;21.77;50.67
52653;BME280;39353;42.864;12.014;2023-04-01T05:16:12;96601.46;;;21.75;50.66
52653;BME280;39353;42.864;12.014;2023-04-01T05:18:53;96604.35;;;21.74;50.62
52653;BME280;39353;42.864;12.014;2023-04-01T05:21:35;96615.82;;;21.74;50.71
52653;BME280;39353;42.864;12.014;2023-04-01T05:24:02;96626.52;;;21.73;50.92
52653;BME280;39353;42.864;12.014;2023-04-01T05:26:45;96633.72;;;21.74;50.81
52653;BME280;39353;42.864;12.014;2023-04-01T05:29:12;96631.30;;;21.73;51.00
52653;BME280;39353;42.864;12.014;2023-04-01T05:31:57;96634.02;;;21.72;50.91
52653;BME280;39353;42.864;12.014;2023-04-01T05:34:25;96631.78;;;21.72;50.92
52653;BME280;39353;42.864;12.014;2023-04-01T05:37:06;96634.84;;;21.72;50.90
52653;BME280;39353;42.864;12.014;2023-04-01T05:39:48;96639.21;;;21.72;50.69
52653;BME280;39353;42.864;12.014;2023-04-01T05:42:29;96641.78;;;21.72;50.68
52653;BME280;39353;42.864;12.014;2023-04-01T05:45:10;96643.91;;;21.72;50.92
52653;BME280;39353;42.864;12.014;2023-04-01T05:47:56;96646.42;;;21.73;50.80
52653;BME280;39353;42.864;12.014;2023-04-01T05:50:39;96650.52;;;21.72;50.75
52653;BME280;39353;42.864;12.014;2023-04-01T05:53:08;96647.45;;;21.72;51.07
52653;BME280;39353;42.864;12.014;2023-04-01T05:55:51;96651.55;;;21.72;50.96
52653;BME280;39353;42.864;12.014;2023-04-01T05:58:19;96665.31;;;21.72;50.87
52653;BME280;39353;42.864;12.014;2023-04-01T06:00:47;96667.88;;;21.72;50.68
52653;BME280;39353;42.864;12.014;2023-04-01T06:03:14;96673.01;;;21.72;50.93
52653;BME280;39353;42.864;12.014;2023-04-01T06:05:55;96679.27;;;21.70;50.84
52653;BME280;39353;42.864;12.014;2023-04-01T06:08:38;96673.32;;;21.70;50.95
52653;BME280;39353;42.864;12.014;2023-04-01T06:46:12;96696.13;;;21.65;50.29
52653;BME280;39353;42.864;12.014;2023-04-01T06:52:58;96705.70;;;21.71;50.24
52653;BME280;39353;42.864;12.014;2023-04-01T06:56:04;96712.89;;;21.73;49.44
52653;BME280;39353;42.864;12.014;2023-04-01T06:59:09;96718.65;;;21.59;46.80
52653;BME280;39353;42.864;12.014;2023-04-01T07:04:35;96725.48;;;21.65;49.17
52653;BME280;39353;42.864;12.014;2023-04-01T07:10:11;96728.18;;;21.74;49.45
52653;BME280;39353;42.864;12.014;2023-04-01T07:13:19;96727.73;;;21.79;49.67
52653;BME280;39353;42.864;12.014;2023-04-01T07:16:08;96733.52;;;21.82;49.74
52653;BME280;39353;42.864;12.014;2023-04-01T07:22:09;96740.73;;;21.88;49.93
52653;BME280;39353;42.864;12.014;2023-04-01T07:25:22;96744.42;;;21.91;49.69
52653;BME280;39353;42.864;12.014;2023-04-01T07:28:16;96744.54;;;21.91;49.90
52653;BME280;39353;42.864;12.014;2023-04-01T07:34:12;96749.09;;;21.92;50.30
52653;BME280;39353;42.864;12.014;2023-04-01T07:40:21;96750.55;;;21.94;50.57
52653;BME280;39353;42.864;12.014;2023-04-01T07:54:22;96759.05;;;22.13;50.24
52653;BME280;39353;42.864;12.014;2023-04-01T08:06:22;96752.34;;;22.13;49.56
52653;BME280;39353;42.864;12.014;2023-04-01T08:18:43;96752.46;;;22.10;49.84
52653;BME280;39353;42.864;12.014;2023-04-01T08:21:40;96751.63;;;22.09;49.40
52653;BME280;39353;42.864;12.014;2023-04-01T08:24:33;96752.09;;;22.07;49.62
52653;BME280;39353;42.864;12.014;2023-04-01T08:27:09;96749.66;;;22.06;49.70
52653;BME280;39353;42.864;12.014;2023-04-01T08:30:16;96741.73;;;22.05;49.80
52653;BME280;39353;42.864;12.014;2023-04-01T08:33:17;96747.70;;;22.05;49.74
52653;BME280;39353;42.864;12.014;2023-04-01T08:38:43;96741.53;;;22.06;49.82
52653;BME280;39353;42.864;12.014;2023-04-01T08:43:59;96733.95;;;22.07;49.98
52653;BME280;39353;42.864;12.014;2023-04-01T08:47:09;96733.34;;;22.03;47.78
52653;BME280;39353;42.864;12.014;2023-04-01T08:56:26;96750.39;;;22.06;49.65
52653;BME280;39353;42.864;12.014;2023-04-01T09:13:32;96756.40;;;22.02;49.54
52653;BME280;39353;42.864;12.014;2023-04-01T09:38:26;96762.67;;;21.97;48.83
52653;BME280;39353;42.864;12.014;2023-04-01T09:41:26;96760.85;;;22.00;48.83
52653;BME280;39353;42.864;12.014;2023-04-01T09:44:33;96757.89;;;22.00;48.41
52653;BME280;39353;42.864;12.014;2023-04-01T09:56:19;96746.89;;;21.91;43.91
52653;BME280;39353;42.864;12.014;2023-04-01T10:10:51;96735.31;;;21.79;45.91
52653;BME280;39353;42.864;12.014;2023-04-01T10:13:36;96735.91;;;21.79;46.70
52653;BME280;39353;42.864;12.014;2023-04-01T10:19:16;96728.81;;;21.79;47.11
52653;BME280;39353;42.864;12.014;2023-04-01T10:31:43;96719.46;;;21.78;47.97
52653;BME280;39353;42.864;12.014;2023-04-01T11:20:13;96683.46;;;21.69;44.92
52653;BME280;39353;42.864;12.014;2023-04-01T11:43:55;96676.63;;;21.90;49.52
52653;BME280;39353;42.864;12.014;2023-04-01T11:47:19;96670.02;;;21.94;50.47
52653;BME280;39353;42.864;12.014;2023-04-01T11:50:12;96668.13;;;21.95;50.39
52653;BME280;39353;42.864;12.014;2023-04-01T11:59:02;96665.77;;;21.99;51.02
52653;BME280;39353;42.864;12.014;2023-04-01T12:10:19;96651.73;;;22.03;51.49
52653;BME280;39353;42.864;12.014;2023-04-01T12:12:59;96647.13;;;22.02;51.37
52653;BME280;39353;42.864;12.014;2023-04-01T12:28:29;96622.67;;;21.95;50.31
52653;BME280;39353;42.864;12.014;2023-04-01T12:31:27;96621.27;;;21.92;49.83
52653;BME280;39353;42.864;12.014;2023-04-01T12:34:00;96615.25;;;21.91;49.54
52653;BME280;39353;42.864;12.014;2023-04-01T12:39:36;96605.39;;;21.89;48.49
52653;BME280;39353;42.864;12.014;2023-04-01T12:42:38;96611.95;;;21.89;47.94
52653;BME280;39353;42.864;12.014;2023-04-01T12:48:31;96604.08;;;21.88;47.18
52653;BME280;39353;42.864;12.014;2023-04-01T13:06:15;96586.48;;;21.92;46.77
52653;BME280;39353;42.864;12.014;2023-04-01T13:09:20;96587.88;;;21.95;46.90
52653;BME280;39353;42.864;12.014;2023-04-01T13:23:35;96584.19;;;22.06;47.19
52653;BME280;39353;42.864;12.014;2023-04-01T13:26:34;96579.05;;;22.06;47.53
52653;BME280;39353;42.864;12.014;2023-04-01T13:51:07;96567.02;;;22.16;47.89
52653;BME280;39353;42.864;12.014;2023-04-01T14:06:00;96557.23;;;22.20;47.44
52653;BME280;39353;42.864;12.014;2023-04-01T14:24:05;96548.09;;;22.25;47.06
52653;BME280;39353;42.864;12.014;2023-04-01T14:38:22;96540.98;;;22.30;47.10
52653;BME280;39353;42.864;12.014;2023-04-01T14:41:00;96536.30;;;22.31;45.78
52653;BME280;39353;42.864;12.014;2023-04-01T14:47:08;96523.55;;;22.36;46.61
52653;BME280;39353;42.864;12.014;2023-04-01T14:50:02;96526.02;;;22.39;46.60
52653;BME280;39353;42.864;12.014;2023-04-01T14:52:55;96524.02;;;22.41;46.88
52653;BME280;39353;42.864;12.014;2023-04-01T14:58:14;96521.20;;;22.43;46.02
52653;BME280;39353;42.864;12.014;2023-04-01T15:12:26;96507.91;;;22.10;40.89
52653;BME280;39353;42.864;12.014;2023-04-01T15:31:59;96515.09;;;22.20;44.10
52653;BME280;39353;42.864;12.014;2023-04-01T15:37:56;96508.64;;;22.19;44.49
52653;BME280;39353;42.864;12.014;2023-04-01T15:40:37;96505.96;;;22.20;44.23
52653;BME280;39353;42.864;12.014;2023-04-01T15:43:46;96509.52;;;22.22;43.47
52653;BME280;39353;42.864;12.014;2023-04-01T15:46:46;96512.67;;;22.22;43.86
52653;BME280;39353;42.864;12.014;2023-04-01T15:49:39;96508.29;;;22.22;43.84
52653;BME280;39353;42.864;12.014;2023-04-01T15:55:31;96508.55;;;22.21;44.06
52653;BME280;39353;42.864;12.014;2023-04-01T15:58:35;96507.77;;;22.20;44.06
52653;BME280;39353;42.864;12.014;2023-04-01T16:01:38;96510.32;;;22.18;44.01
52653;BME280;39353;42.864;12.014;2023-04-01T16:17:11;96504.81;;;22.07;40.47
52653;BME280;39353;42.864;12.014;2023-04-01T16:25:42;96509.91;;;22.08;42.16
52653;BME280;39353;42.864;12.014;2023-04-01T16:29:17;96506.75;;;22.08;42.29
52653;BME280;39353;42.864;12.014;2023-04-01T16:41:19;96512.22;;;22.16;43.67
52653;BME280;39353;42.864;12.014;2023-04-01T16:44:23;96511.59;;;22.14;43.88
52653;BME280;39353;42.864;12.014;2023-04-01T16:47:14;96515.08;;;22.13;44.18
52653;BME280;39353;42.864;12.014;2023-04-01T16:53:17;96512.67;;;22.13;44.40
52653;BME280;39353;42.864;12.014;2023-04-01T16:56:07;96511.36;;;22.12;44.65
52653;BME280;39353;42.864;12.014;2023-04-01T17:01:48;96506.94;;;22.13;42.25
52653;BME280;39353;42.864;12.014;2023-04-01T17:04:44;96511.17;;;22.08;42.56
52653;BME280;39353;42.864;12.014;2023-04-01T17:15:55;96515.45;;;22.06;43.91
52653;BME280;39353;42.864;12.014;2023-04-01T17:46:10;96582.84;;;22.29;44.63
52653;BME280;39353;42.864;12.014;2023-04-01T18:09:06;96620.09;;;22.81;49.05
52653;BME280;39353;42.864;12.014;2023-04-01T18:26:34;96628.11;;;23.13;51.17
52653;BME280;39353;42.864;12.014;2023-04-01T18:38:35;96636.79;;;23.36;51.14
52653;BME280;39353;42.864;12.014;2023-04-01T18:44:30;96648.85;;;23.48;50.48
52653;BME280;39353;42.864;12.014;2023-04-01T18:53:56;96659.91;;;23.55;49.81
52653;BME280;39353;42.864;12.014;2023-04-01T18:56:43;96662.05;;;23.55;49.45
52653;BME280;39353;42.864;12.014;2023-04-01T19:05:23;96664.67;;;23.56;49.12
52653;BME280;39353;42.864;12.014;2023-04-01T19:10:46;96668.06;;;23.53;48.97
52653;BME280;39353;42.864;12.014;2023-04-01T19:13:28;96670.13;;;23.52;48.92
52653;BME280;39353;42.864;12.014;2023-04-01T19:16:23;96676.20;;;23.50;48.65
52653;BME280;39353;42.864;12.014;2023-04-01T19:31:38;96686.70;;;23.41;47.96
52653;BME280;39353;42.864;12.014;2023-04-01T19:34:19;96684.25;;;23.42;47.76
52653;BME280;39353;42.864;12.014;2023-04-01T19:41:00;96691.32;;;23.44;47.86
52653;BME280;39353;42.864;12.014;2023-04-01T19:54:57;96708.27;;;23.41;47.46
52653;BME280;39353;42.864;12.014;2023-04-01T20:00:37;96705.59;;;23.41;47.56
52653;BME280;39353;42.864;12.014;2023-04-01T20:06:16;96707.81;;;23.37;47.56
52653;BME280;39353;42.864;12.014;2023-04-01T20:11:44;96699.55;;;23.38;47.54
52653;BME280;39353;42.864;12.014;2023-04-01T20:28:04;96702.48;;;23.29;46.92
52653;BME280;39353;42.864;12.014;2023-04-01T20:33:25;96696.45;;;23.22;46.98
52653;BME280;39353;42.864;12.014;2023-04-01T20:45:33;96690.66;;;23.28;47.18
52653;BME280;39353;42.864;12.014;2023-04-01T20:51:51;96674.23;;;23.29;47.11
52653;BME280;39353;42.864;12.014;2023-04-01T20:57:33;96687.41;;;23.26;47.31
52653;BME280;39353;42.864;12.014;2023-04-01T21:00:44;96695.05;;;23.22;47.15
52653;BME280;39353;42.864;12.014;2023-04-01T21:36:31;96735.14;;;22.76;47.92
52653;BME280;39353;42.864;12.014;2023-04-01T21:50:54;96718.06;;;22.64;47.91
52653;BME280;39353;42.864;12.014;2023-04-01T22:00:17;96718.40;;;22.56;48.11
52653;BME280;39353;42.864;12.014;2023-04-01T22:06:24;96714.95;;;22.52;48.36
52653;BME280;39353;42.864;12.014;2023-04-01T22:09:29;96708.59;;;22.49;48.28
52653;BME280;39353;42.864;12.014;2023-04-01T22:17:40;96704.05;;;22.44;48.27
52653;BME280;39353;42.864;12.014;2023-04-01T22:20:23;96701.98;;;22.43;48.38
52653;BME280;39353;42.864;12.014;2023-04-01T22:23:26;96702.66;;;22.41;48.35
52653;BME280;39353;42.864;12.014;2023-04-01T22:29:09;96701.59;;;22.37;48.32
52653;BME280;39353;42.864;12.014;2023-04-01T22:31:50;96699.33;;;22.35;48.33
52653;BME280;39353;42.864;12.014;2023-04-01T22:40:56;96694.35;;;22.30;48.43
52653;BME280;39353;42.864;12.014;2023-04-01T22:43:36;96685.70;;;22.29;48.57
52653;BME280;39353;42.864;12.014;2023-04-01T22:48:48;96679.80;;;22.24;48.50
52653;BME280;39353;42.864;12.014;2023-04-01T22:54:45;96673.58;;;22.21;48.58
52653;BME280;39353;42.864;12.014;2023-04-01T23:00:14;96682.94;;;22.17;48.82
52653;BME280;39353;42.864;12.014;2023-04-01T23:11:18;96684.77;;;22.11;48.75
52653;BME280;39353;42.864;12.014;2023-04-01T23:16:54;96679.05;;;22.07;48.79
52653;BME280;39353;42.864;12.014;2023-04-01T23:19:30;96676.09;;;22.06;48.88
52653;BME280;39353;42.864;12.014;2023-04-01T23:22:21;96682.36;;;22.06;48.86
52653;BME280;39353;42.864;12.014;2023-04-01T23:25:21;96678.11;;;22.03;48.88
52653;BME280;39353;42.864;12.014;2023-04-01T23:27:59;96677.13;;;22.02;48.92
52653;BME280;39353;42.864;12.014;2023-04-01T23:33:23;96670.70;;;22.00;48.99
52653;BME280;39353;42.864;12.014;2023-04-01T23:36:13;96660.64;;;21.99;48.93
52653;BME280;39353;42.864;12.014;2023-04-01T23:38:48;96655.50;;;21.99;49.04
52653;BME280;39353;42.864;12.014;2023-04-01T23:41:20;96658.33;;;21.98;49.00
52653;BME280;39353;42.864;12.014;2023-04-01T23:44:02;96654.92;;;21.97;49.05
52653;BME280;39353;42.864;12.014;2023-04-01T23:46:47;96653.21;;;21.94;49.09
52653;BME280;39353;42.864;12.014;2023-04-01T23:49:27;96649.88;;;21.94;49.18
52653;BME280;39353;42.864;12.014;2023-04-01T23:52:24;96651.62;;;21.94;48.98
52653;BME280;39353;42.864;12.014;2023-04-01T23:57:39;96650.29;;;21.93;49.03
